Terminal Aerodrome Forecast
Issued by NWS

Home | Current Version | Previous Version | Text Only | Print | Product List | Glossary On
Versions: 1 2 3 4 5 6 7 8 9 10 11 12 13 14 15 16 17 18 19 20
995
FTUS43 KAPX 110924 AAA
TAFTVC
TAF AMD
KTVC 110924Z 1109/1206 32011KT 4SM -SHSN OVC035
      TEMPO 1109/1113 1 1/2SM -SHSN OVC018
     FM111900 30008KT P6SM VCSH OVC035
     FM120200 27006KT P6SM BKN035=

USA.gov is the U.S. government's official web portal to all federal, state and local government web resources and services.